Time;durP1;ratioP1;P1;durP2;ratioP2;P2;SDS_P1;SDS_P2;PMS_P1;PMS_P2;Temp;Humidity;BMP_temperature;BMP_pressure;BME280_temperature;BME280_humidity;BME280_pressure;Samples;Min_cycle;Max_cycle;Signal;HPM_P1;HPM_P2
2024/02/04 09:37:17;;;;;;;139.75;106.68;;;23.40;76.70;;;;;;5050234;27;45632;-76
2024/02/04 09:39:42;;;;;;;133.85;102.68;;;23.80;76.80;;;;;;5038185;28;45545;-75
2024/02/04 09:42:08;;;;;;;130.98;102.70;;;24.00;75.80;;;;;;5038138;28;61534;-71
2024/02/04 09:44:35;;;;;;;121.85;88.53;;;24.10;75.50;;;;;;5038387;28;53583;-71
2024/02/04 09:47:02;;;;;;;106.75;79.57;;;24.20;76.10;;;;;;5038395;28;45921;-72
2024/02/04 09:49:41;;;;;;;103.40;79.40;;;24.20;76.70;;;;;;5039734;28;45696;-74
2024/02/04 09:52:08;;;;;;;95.22;66.68;;;24.20;76.60;;;;;;5054858;28;45614;-76
2024/02/04 09:55:01;;;;;;;86.15;65.72;;;24.20;76.90;;;;;;5045331;28;45660;-76
2024/02/04 09:57:29;;;;;;;89.68;62.40;;;24.20;77.00;;;;;;5043832;28;45522;-77
2024/02/04 09:59:55;;;;;;;86.80;61.38;;;24.20;77.00;;;;;;5059106;28;45678;-71
2024/02/04 10:05:42;;;;;;;81.50;56.03;;;24.20;77.30;;;;;;5039044;28;45620;-71
2024/02/04 10:08:17;;;;;;;73.07;51.40;;;24.20;77.40;;;;;;5049442;28;45731;-72
2024/02/04 10:10:43;;;;;;;66.82;48.25;;;24.20;77.50;;;;;;5046787;28;45628;-70
2024/02/04 10:13:09;;;;;;;66.38;44.55;;;24.20;77.30;;;;;;5045066;28;45600;-74
2024/02/04 10:15:47;;;;;;;59.80;41.38;;;24.20;76.90;;;;;;5039671;28;48626;-74
2024/02/04 10:18:12;;;;;;;54.45;39.67;;;24.20;77.10;;;;;;5042012;28;45725;-77
2024/02/04 10:20:38;;;;;;;57.00;37.25;;;24.20;77.90;;;;;;5044995;28;73243;-72
2024/02/04 10:23:03;;;;;;;49.42;35.33;;;24.30;77.20;;;;;;5048989;28;46075;-72
2024/02/04 10:25:29;;;;;;;52.47;32.90;;;24.30;77.10;;;;;;5038760;28;46403;-72
2024/02/04 10:27:54;;;;;;;43.17;29.10;;;24.30;76.60;;;;;;5042572;28;75646;-76
2024/02/04 10:30:21;;;;;;;40.25;26.77;;;24.30;75.80;;;;;;5038846;28;54328;-74
2024/02/04 10:32:50;;;;;;;38.40;25.58;;;24.30;75.50;;;;;;5038229;28;46009;-71
2024/02/04 10:35:18;;;;;;;39.80;27.17;;;24.30;75.80;;;;;;5035173;28;45781;-73
2024/02/04 10:37:45;;;;;;;33.17;23.30;;;24.30;75.50;;;;;;5044009;28;45667;-74
2024/02/04 10:40:10;;;;;;;26.30;21.17;;;24.30;75.50;;;;;;5036441;28;45724;-74
2024/02/04 10:42:38;;;;;;;29.55;19.83;;;24.30;75.20;;;;;;5041954;28;45657;-76
2024/02/04 10:45:08;;;;;;;28.90;19.75;;;24.30;75.00;;;;;;5044593;28;45514;-73
2024/02/04 10:47:37;;;;;;;27.33;19.52;;;24.30;75.40;;;;;;5032098;28;45718;-75
2024/02/04 10:50:03;;;;;;;35.58;19.50;;;24.30;75.20;;;;;;5027106;28;45801;-72
2024/02/04 10:52:41;;;;;;;30.85;16.02;;;24.30;75.80;;;;;;5023102;28;45509;-71
2024/02/04 10:55:11;;;;;;;19.92;15.93;;;24.30;75.30;;;;;;5020600;28;45642;-70
2024/02/04 10:57:38;;;;;;;25.33;13.27;;;24.30;75.50;;;;;;5029718;28;46519;-76
2024/02/04 11:00:08;;;;;;;20.55;13.55;;;24.30;75.00;;;;;;5045364;28;45673;-74
2024/02/04 11:02:35;;;;;;;16.92;12.10;;;24.20;75.20;;;;;;5042901;28;45973;-74
2024/02/04 11:05:04;;;;;;;22.38;12.70;;;24.20;75.70;;;;;;5024929;28;47799;-72
2024/02/04 11:07:32;;;;;;;26.05;10.80;;;24.20;75.00;;;;;;5017536;28;46723;-75
2024/02/04 11:09:58;;;;;;;19.70;11.10;;;24.20;74.40;;;;;;5029214;28;45782;-73
2024/02/04 11:12:26;;;;;;;27.48;12.25;;;24.20;74.50;;;;;;5027764;28;47435;-72
2024/02/04 11:14:58;;;;;;;16.33;10.35;;;24.10;75.50;;;;;;5024768;28;48227;-76
2024/02/04 11:17:42;;;;;;;17.20;9.47;;;24.10;74.60;;;;;;5040301;28;48342;-73
2024/02/04 11:20:45;;;;;;;21.88;9.45;;;24.10;74.80;;;;;;5019948;28;45722;-70
2024/02/04 11:23:44;;;;;;;22.13;7.85;;;24.10;75.90;;;;;;5016976;28;45722;-71
2024/02/04 11:26:11;;;;;;;20.88;7.88;;;24.20;76.60;;;;;;5024821;28;45718;-72
2024/02/04 11:28:39;;;;;;;12.48;6.95;;;24.30;76.90;;;;;;5021052;28;45672;-72
2024/02/04 11:31:04;;;;;;;12.63;6.03;;;24.30;75.70;;;;;;5025660;28;45655;-73
2024/02/04 11:33:31;;;;;;;16.70;6.53;;;24.30;75.50;;;;;;5024629;28;45800;-71
2024/02/04 11:36:03;;;;;;;12.45;5.97;;;24.30;75.90;;;;;;5026781;28;45691;-69
2024/02/04 11:38:30;;;;;;;;;;;24.30;75.40;;;;;;5024769;28;45589;-72
2024/02/04 11:40:57;;;;;;;12.57;4.85;;;24.30;74.90;;;;;;5035258;28;46713;-72
2024/02/04 11:43:23;;;;;;;15.63;5.40;;;24.30;75.00;;;;;;5020761;28;45667;-73
2024/02/04 11:45:53;;;;;;;14.02;5.00;;;24.30;75.20;;;;;;5015669;28;48001;-71
2024/02/04 11:48:20;;;;;;;13.45;4.95;;;24.30;75.60;;;;;;5030278;28;46474;-73
2024/02/04 11:50:53;;;;;;;15.32;4.40;;;24.30;76.40;;;;;;5018728;28;45703;-72
2024/02/04 11:53:19;;;;;;;12.38;4.78;;;24.30;75.70;;;;;;5035069;28;45855;-74
2024/02/04 11:55:45;;;;;;;12.13;3.70;;;24.30;75.20;;;;;;5022299;28;45703;-71
2024/02/04 11:58:11;;;;;;;29.02;5.13;;;24.30;75.50;;;;;;5035089;28;59723;-72
2024/02/04 12:00:37;;;;;;;22.50;6.15;;;24.30;75.50;;;;;;5032731;28;45645;-72
2024/02/04 12:03:06;;;;;;;20.58;5.78;;;24.30;75.40;;;;;;5029260;28;45965;-70
2024/02/04 12:05:34;;;;;;;22.45;4.65;;;24.40;75.30;;;;;;5025686;28;45587;-72
2024/02/04 12:08:05;;;;;;;16.08;4.65;;;24.40;75.20;;;;;;5039897;28;49017;-73
2024/02/04 12:10:34;;;;;;;19.77;4.18;;;24.50;74.90;;;;;;5023241;28;46299;-70
2024/02/04 12:13:04;;;;;;;18.10;4.68;;;24.40;75.00;;;;;;5021098;28;45633;-69
2024/02/04 12:15:30;;;;;;;15.73;4.20;;;24.40;74.50;;;;;;5033617;28;46554;-69
2024/02/04 12:17:55;;;;;;;13.65;3.90;;;24.40;76.40;;;;;;5027239;28;46149;-68
2024/02/04 12:20:21;;;;;;;10.18;4.30;;;24.50;77.20;;;;;;5025363;28;45543;-69
2024/02/04 12:22:48;;;;;;;14.35;4.40;;;24.50;76.90;;;;;;5022378;28;68259;-68
2024/02/04 12:25:14;;;;;;;12.13;4.07;;;24.50;76.70;;;;;;5020680;28;47541;-69
2024/02/04 12:27:40;;;;;;;10.40;4.30;;;24.50;75.50;;;;;;5026389;28;46252;-68
2024/02/04 12:30:07;;;;;;;12.65;3.40;;;24.50;76.00;;;;;;5019645;28;45704;-68
2024/02/04 12:32:33;;;;;;;16.65;3.58;;;24.50;75.80;;;;;;5018899;28;45708;-68
2024/02/04 12:34:58;;;;;;;7.00;3.22;;;24.50;75.50;;;;;;5015053;28;45826;-68
2024/02/04 12:37:26;;;;;;;13.93;3.60;;;24.50;74.90;;;;;;5019175;28;56607;-70
2024/02/04 12:39:51;;;;;;;14.80;2.83;;;24.40;75.00;;;;;;5026933;28;45608;-68
2024/02/04 12:42:21;;;;;;;10.60;3.00;;;24.40;74.70;;;;;;5021341;28;62588;-67
2024/02/04 12:44:48;;;;;;;10.88;3.15;;;24.40;74.80;;;;;;5023270;28;45648;-68
2024/02/04 12:47:28;;;;;;;13.05;3.45;;;24.50;75.50;;;;;;5031574;28;46228;-68
2024/02/04 12:49:58;;;;;;;13.40;2.90;;;24.50;75.40;;;;;;5022784;28;45676;-68
2024/02/04 12:52:25;;;;;;;12.27;2.80;;;24.50;75.30;;;;;;5039119;28;45879;-69
2024/02/04 12:54:52;;;;;;;8.68;2.63;;;24.50;74.80;;;;;;5026307;28;74707;-67
2024/02/04 12:57:23;;;;;;;7.55;3.05;;;24.50;74.40;;;;;;5027942;28;45983;-68
2024/02/04 12:59:50;;;;;;;11.90;2.70;;;24.50;74.90;;;;;;5022579;28;45729;-66
2024/02/04 13:02:17;;;;;;;15.60;3.30;;;24.50;74.80;;;;;;5017335;28;69206;-67
2024/02/04 13:04:43;;;;;;;17.52;2.97;;;24.50;74.30;;;;;;5024146;28;45783;-67
2024/02/04 13:07:11;;;;;;;19.20;3.47;;;24.50;75.00;;;;;;5033225;28;71725;-67
2024/02/04 13:09:36;;;;;;;15.18;2.67;;;24.50;74.30;;;;;;5038941;28;45794;-67
2024/02/04 13:12:09;;;;;;;8.02;2.30;;;24.60;75.00;;;;;;5026251;28;69631;-67
2024/02/04 13:14:38;;;;;;;9.45;2.13;;;24.60;74.00;;;;;;5020922;28;45798;-67
2024/02/04 13:17:05;;;;;;;11.18;2.85;;;24.60;73.90;;;;;;5024270;28;46441;-70
2024/02/04 13:19:37;;;;;;;26.23;3.42;;;24.60;73.80;;;;;;5028431;28;46334;-67
2024/02/04 13:22:03;;;;;;;;;;;24.70;74.70;;;;;;5042789;28;45595;-66
2024/02/04 13:24:30;;;;;;;13.70;3.03;;;24.80;73.90;;;;;;5029894;28;45763;-68
2024/02/04 13:26:55;;;;;;;12.38;3.42;;;24.80;75.10;;;;;;5024931;28;45695;-67
2024/02/04 13:29:21;;;;;;;16.58;2.95;;;24.90;74.40;;;;;;5041060;28;45559;-68
2024/02/04 13:31:47;;;;;;;7.88;2.97;;;24.90;74.80;;;;;;5024473;28;45610;-66
2024/02/04 13:34:12;;;;;;;18.10;3.50;;;24.90;74.60;;;;;;5022552;28;75543;-67
2024/02/04 13:36:38;;;;;;;11.57;2.58;;;24.90;72.70;;;;;;5029357;28;46061;-69
2024/02/04 13:39:05;;;;;;;8.25;2.42;;;24.90;73.40;;;;;;5022423;28;67267;-67
2024/02/04 13:41:31;;;;;;;17.27;2.60;;;24.90;73.00;;;;;;5039256;28;45585;-67
2024/02/04 13:43:57;;;;;;;8.05;2.45;;;24.80;73.50;;;;;;5027134;28;46554;-67
2024/02/04 13:46:22;;;;;;;9.77;1.83;;;24.80;72.00;;;;;;5026699;28;45745;-68
2024/02/04 13:48:48;;;;;;;6.93;1.45;;;24.80;72.00;;;;;;5022169;28;45522;-68
2024/02/04 13:51:13;;;;;;;6.63;1.85;;;24.80;72.20;;;;;;5026952;28;45551;-67
2024/02/04 13:53:39;;;;;;;8.20;1.90;;;24.80;71.80;;;;;;5027696;28;45621;-67
2024/02/04 13:56:04;;;;;;;12.15;1.50;;;24.80;71.90;;;;;;5021181;28;45614;-67
2024/02/04 13:58:30;;;;;;;4.75;1.20;;;24.80;71.10;;;;;;5021941;28;45630;-67
2024/02/04 14:00:55;;;;;;;4.68;1.77;;;24.80;71.20;;;;;;5021248;28;45809;-67
2024/02/04 14:03:21;;;;;;;4.13;1.15;;;24.80;71.10;;;;;;5021469;28;65799;-70
2024/02/04 14:05:55;;;;;;;11.20;1.88;;;24.70;71.30;;;;;;5020934;28;75625;-68
2024/02/04 14:08:20;;;;;;;14.18;1.83;;;24.70;70.70;;;;;;5022977;28;45550;-69
2024/02/04 14:10:46;;;;;;;6.90;1.35;;;24.70;71.00;;;;;;5037192;28;45978;-66
2024/02/04 14:13:12;;;;;;;7.93;1.83;;;24.70;70.80;;;;;;5025333;28;47539;-68
2024/02/04 14:15:38;;;;;;;6.95;1.95;;;24.70;71.10;;;;;;5022457;28;47737;-68
2024/02/04 14:18:04;;;;;;;9.18;1.92;;;24.70;71.40;;;;;;5024230;28;45463;-68
2024/02/04 14:20:45;;;;;;;5.80;1.67;;;24.80;71.50;;;;;;5022881;28;45444;-67
2024/02/04 14:23:11;;;;;;;4.00;1.70;;;24.90;71.40;;;;;;5028528;28;70679;-68
2024/02/04 14:25:36;;;;;;;8.75;1.33;;;25.00;71.90;;;;;;5025348;28;71374;-68
2024/02/04 14:28:02;;;;;;;6.63;1.70;;;25.10;71.30;;;;;;5026599;28;45519;-69
2024/02/04 14:30:27;;;;;;;6.35;1.80;;;25.10;70.90;;;;;;5030656;28;45607;-69
2024/02/04 14:32:59;;;;;;;23.58;11.13;;;25.10;70.70;;;;;;5025843;28;75732;-68
2024/02/04 14:35:24;;;;;;;62.00;34.85;;;25.20;71.60;;;;;;5023238;28;47283;-69
2024/02/04 14:37:50;;;;;;;58.40;37.97;;;25.20;71.60;;;;;;5025683;28;45894;-67
2024/02/04 14:40:15;;;;;;;60.05;37.33;;;25.30;71.80;;;;;;5026535;28;69319;-67
2024/02/04 14:42:41;;;;;;;52.10;34.13;;;25.40;71.50;;;;;;5025357;28;75648;-67
2024/02/04 14:45:12;;;;;;;68.38;41.72;;;25.30;72.00;;;;;;5043535;28;45842;-68
2024/02/04 14:47:38;;;;;;;82.78;51.53;;;25.40;71.90;;;;;;5024648;28;45661;-68
2024/02/04 14:50:04;;;;;;;77.95;49.97;;;25.40;71.60;;;;;;5029819;28;67144;-68
2024/02/04 14:52:30;;;;;;;79.13;50.33;;;25.50;71.80;;;;;;5025404;28;47072;-68
2024/02/04 14:54:55;;;;;;;96.70;62.88;;;25.50;72.50;;;;;;5026629;28;74296;-68
2024/02/04 14:57:21;;;;;;;90.50;61.08;;;25.50;72.50;;;;;;5023941;28;72814;-69
2024/02/04 14:59:46;;;;;;;102.53;65.78;;;25.50;72.10;;;;;;5024515;28;68994;-68
2024/02/04 15:02:11;;;;;;;109.18;71.00;;;25.50;71.80;;;;;;5025927;28;74877;-69
2024/02/04 15:04:42;;;;;;;101.38;67.97;;;25.60;71.70;;;;;;5024567;28;73171;-69
2024/02/04 15:07:08;;;;;;;127.53;79.40;;;25.60;71.60;;;;;;5025552;28;45632;-68
2024/02/04 15:09:34;;;;;;;128.40;79.88;;;25.60;71.60;;;;;;5027541;28;45500;-67
2024/02/04 15:12:00;;;;;;;130.25;83.25;;;25.60;71.60;;;;;;5024149;28;45688;-69
2024/02/04 15:14:26;;;;;;;138.63;87.75;;;25.60;71.30;;;;;;5021235;28;46903;-69
2024/02/04 15:16:54;;;;;;;132.77;86.47;;;25.70;71.00;;;;;;5032873;28;46308;-70
2024/02/04 15:19:21;;;;;;;144.55;91.53;;;25.70;71.60;;;;;;5044731;28;46959;-70
2024/02/04 15:21:47;;;;;;;142.93;94.60;;;25.70;71.20;;;;;;5023545;28;45690;-69
2024/02/04 15:24:13;;;;;;;119.43;74.28;;;25.80;70.20;;;;;;5024840;28;45997;-70
2024/02/04 15:26:40;;;;;;;139.80;90.43;;;25.80;69.80;;;;;;5023555;28;45740;-70
2024/02/04 15:29:06;;;;;;;121.55;79.35;;;25.80;70.00;;;;;;5045250;28;45915;-70
2024/02/04 15:31:35;;;;;;;137.27;87.25;;;25.80;69.50;;;;;;5034890;28;45628;-69
2024/02/04 15:34:04;;;;;;;137.30;92.25;;;25.90;69.60;;;;;;5022591;28;46085;-69
2024/02/04 15:36:32;;;;;;;141.95;93.53;;;25.90;69.70;;;;;;5022404;28;45836;-70
2024/02/04 15:38:57;;;;;;;138.80;88.63;;;25.90;69.80;;;;;;5028579;28;45544;-69
2024/02/04 15:41:23;;;;;;;123.30;80.63;;;25.90;69.60;;;;;;5043268;28;46568;-70
2024/02/04 15:43:48;;;;;;;142.73;92.05;;;25.90;69.80;;;;;;5030402;28;73775;-70
2024/02/04 15:46:17;;;;;;;147.05;96.65;;;25.90;69.70;;;;;;5026799;28;71696;-70
2024/02/04 15:48:44;;;;;;;130.18;84.30;;;25.90;69.40;;;;;;5035102;28;45577;-70
2024/02/04 15:51:10;;;;;;;134.90;87.82;;;25.90;69.40;;;;;;5042748;28;46331;-70
2024/02/04 15:53:36;;;;;;;148.48;96.70;;;25.90;69.20;;;;;;5037943;28;46544;-70
2024/02/04 15:56:06;;;;;;;123.35;80.15;;;25.90;69.10;;;;;;5031635;28;45989;-70
2024/02/04 15:58:35;;;;;;;123.18;76.80;;;25.90;69.10;;;;;;5023734;28;45601;-67
2024/02/04 16:01:11;;;;;;;137.30;82.10;;;26.00;68.80;;;;;;5024101;28;45567;-67
2024/02/04 16:03:39;;;;;;;161.43;105.45;;;26.00;68.80;;;;;;5021151;28;45723;-68
2024/02/04 16:06:08;;;;;;;188.43;122.15;;;26.00;69.70;;;;;;5021734;28;45554;-68
2024/02/04 16:08:34;;;;;;;226.18;143.27;;;26.00;70.50;;;;;;5020872;28;45609;-68
2024/02/04 16:11:05;;;;;;;248.65;168.88;;;26.00;70.60;;;;;;5026147;28;46286;-68
2024/02/04 16:13:33;;;;;;;197.40;134.00;;;26.00;71.60;;;;;;5021494;28;45749;-68
2024/02/04 16:16:02;;;;;;;262.65;181.48;;;26.00;71.10;;;;;;5027391;28;46537;-68
2024/02/04 16:18:28;;;;;;;252.27;176.48;;;26.00;71.60;;;;;;5021229;28;45585;-68
2024/02/04 16:20:53;;;;;;;246.30;165.25;;;26.00;71.90;;;;;;5026814;28;47029;-69
2024/02/04 16:23:19;;;;;;;274.45;184.30;;;26.00;72.10;;;;;;5019629;28;75622;-68
2024/02/04 16:25:44;;;;;;;231.73;155.85;;;26.00;72.30;;;;;;5020050;28;45801;-69
2024/02/04 16:28:10;;;;;;;240.27;161.73;;;26.00;72.00;;;;;;5021839;28;45862;-68
2024/02/04 16:30:36;;;;;;;227.70;161.00;;;26.00;72.30;;;;;;5021755;28;46336;-68
2024/02/04 16:33:02;;;;;;;233.10;164.45;;;26.10;72.40;;;;;;5026128;28;46262;-67
2024/02/04 16:35:27;;;;;;;236.85;161.13;;;26.10;72.40;;;;;;5031262;28;45757;-67
2024/02/04 16:37:53;;;;;;;273.77;190.27;;;26.20;72.50;;;;;;5040508;28;47895;-67
2024/02/04 16:40:18;;;;;;;259.73;173.73;;;26.10;72.70;;;;;;5020021;28;46682;-67
2024/02/04 16:42:44;;;;;;;285.38;201.45;;;26.20;72.90;;;;;;5035292;28;46231;-69
2024/02/04 16:45:10;;;;;;;201.43;137.30;;;26.20;72.70;;;;;;5026759;28;45620;-71
2024/02/04 16:47:35;;;;;;;183.13;122.43;;;26.10;71.10;;;;;;5025183;28;45620;-70
2024/02/04 16:50:01;;;;;;;163.63;110.28;;;26.00;70.10;;;;;;5024264;28;46339;-71
2024/02/04 16:52:26;;;;;;;171.98;114.82;;;25.80;70.10;;;;;;5025712;28;75628;-71
2024/02/04 16:54:52;;;;;;;226.60;148.93;;;25.70;70.10;;;;;;5024255;28;45749;-70
2024/02/04 16:57:18;;;;;;;204.18;136.70;;;25.70;71.00;;;;;;5024855;28;45978;-70
2024/02/04 16:59:45;;;;;;;196.32;131.30;;;25.70;70.40;;;;;;5028709;28;46495;-70
2024/02/04 17:02:13;;;;;;;207.07;133.45;;;25.70;70.30;;;;;;5022412;28;46103;-70
2024/02/04 17:04:43;;;;;;;207.18;141.60;;;25.70;70.20;;;;;;5030962;28;45734;-70
2024/02/04 17:07:09;;;;;;;191.68;132.40;;;25.70;70.10;;;;;;5021159;28;45696;-70
2024/02/04 17:09:37;;;;;;;209.85;141.60;;;25.80;70.10;;;;;;5030712;28;46844;-70
2024/02/04 17:12:02;;;;;;;219.82;144.90;;;25.70;70.30;;;;;;5023509;28;46114;-70
2024/02/04 17:14:28;;;;;;;224.20;150.15;;;25.70;70.30;;;;;;5023437;28;45675;-70
2024/02/04 17:17:07;;;;;;;208.32;134.27;;;25.70;70.50;;;;;;5021515;28;45690;-70
2024/02/04 17:19:50;;;;;;;207.55;143.98;;;25.70;70.20;;;;;;5022947;28;46324;-71
2024/02/04 17:22:18;;;;;;;219.40;151.95;;;25.70;70.60;;;;;;5032439;28;45649;-71
2024/02/04 17:24:57;;;;;;;220.77;149.57;;;25.80;71.00;;;;;;5028556;28;45671;-71
2024/02/04 17:27:24;;;;;;;191.48;128.90;;;25.70;70.80;;;;;;5024712;28;45728;-72
2024/02/04 17:29:57;;;;;;;266.63;177.43;;;25.70;70.40;;;;;;5020906;28;46595;-73
2024/02/04 17:32:25;;;;;;;197.02;130.82;;;25.70;71.50;;;;;;5022116;28;45642;-72
2024/02/04 17:34:53;;;;;;;220.75;149.25;;;25.70;70.80;;;;;;5022867;28;45727;-73
2024/02/04 17:37:19;;;;;;;179.02;116.75;;;25.60;71.00;;;;;;5027289;28;45717;-70
2024/02/04 17:39:46;;;;;;;193.00;133.43;;;25.60;70.30;;;;;;5024405;28;73941;-69
2024/02/04 17:42:13;;;;;;;158.00;106.82;;;25.60;71.30;;;;;;5038888;28;73322;-71
2024/02/04 17:44:39;;;;;;;188.82;123.88;;;25.60;69.80;;;;;;5023229;28;45835;-69
2024/02/04 17:47:05;;;;;;;214.55;147.80;;;25.60;70.90;;;;;;5026130;28;45739;-68
2024/02/04 17:49:31;;;;;;;264.98;173.55;;;25.60;72.40;;;;;;5021148;28;45736;-71
2024/02/04 17:51:57;;;;;;;317.33;220.95;;;25.80;73.70;;;;;;5023736;28;45782;-70
2024/02/04 17:54:23;;;;;;;304.33;218.77;;;25.90;75.10;;;;;;5021312;28;61909;-73
2024/02/04 17:56:51;;;;;;;295.45;205.85;;;26.00;74.50;;;;;;5021148;28;45877;-73
2024/02/04 17:59:17;;;;;;;315.40;214.07;;;26.00;74.40;;;;;;5025908;28;45736;-70
